createdAt,value
2022-07-29T00:04:04.004Z,1.83
2022-07-29T00:09:05.013Z,1.50
2022-07-29T00:14:06.041Z,1.95
2022-07-29T00:19:07.955Z,1.40
2022-07-29T00:24:08.960Z,1.53
2022-07-29T00:34:59.090Z,1.80
2022-07-29T00:39:59.914Z,1.70
2022-07-29T00:45:01.266Z,2.03
2022-07-29T00:50:04.715Z,1.67
2022-07-29T00:55:08.956Z,1.80
2022-07-29T01:00:13.804Z,1.50
2022-07-29T01:05:20.427Z,1.65
2022-07-29T01:10:23.027Z,1.70
2022-07-29T01:15:24.417Z,1.73
2022-07-29T01:20:59.184Z,1.87
2022-07-29T01:29:36.174Z,1.95
2022-07-29T01:35:28.849Z,2.03
2022-07-29T01:40:37.808Z,1.23
2022-07-29T01:45:58.019Z,1.65
2022-07-29T01:51:04.816Z,1.80
2022-07-29T01:56:09.155Z,1.87
2022-07-29T02:01:12.783Z,1.92
2022-07-29T02:06:19.299Z,1.73
2022-07-29T02:11:20.231Z,2.37
2022-07-29T02:16:23.137Z,2.28
2022-07-29T02:21:26.970Z,2.90
2022-07-29T02:26:29.423Z,2.40
2022-07-29T02:31:34.693Z,1.60
2022-07-29T02:36:36.688Z,1.77
2022-07-29T02:41:44.718Z,2.10
2022-07-29T02:47:02.488Z,1.50
2022-07-29T02:52:18.546Z,1.90
2022-07-29T02:57:23.050Z,2.22
2022-07-29T03:02:27.210Z,1.77
2022-07-29T03:07:28.625Z,1.90
2022-07-29T03:12:30.887Z,2.03
2022-07-29T03:17:32.290Z,2.13
2022-07-29T03:22:38.893Z,2.08
2022-07-29T03:27:40.315Z,1.90
2022-07-29T03:32:42.032Z,1.95
2022-07-29T03:37:46.094Z,1.73
2022-07-29T03:42:48.843Z,2.10
2022-07-29T03:48:14.334Z,2.15
2022-07-29T03:53:16.116Z,2.15
2022-07-29T03:58:18.905Z,2.42
2022-07-29T04:03:20.005Z,2.40
2022-07-29T04:08:20.933Z,2.05
2022-07-29T04:13:21.938Z,2.40
2022-07-29T04:18:23.364Z,2.20
2022-07-29T04:23:24.204Z,2.40
2022-07-29T04:28:26.293Z,2.55
2022-07-29T04:33:27.239Z,2.30
2022-07-29T04:38:28.117Z,2.20
2022-07-29T04:43:29.126Z,2.33
2022-07-29T04:48:37.993Z,2.22
2022-07-29T04:53:38.897Z,2.50
2022-07-29T04:58:39.831Z,2.42
2022-07-29T05:03:41.045Z,2.65
2022-07-29T05:08:42.191Z,2.45
2022-07-29T05:13:46.396Z,2.22
2022-07-29T05:18:48.610Z,2.30
2022-07-29T05:23:49.493Z,2.78
2022-07-29T05:28:50.852Z,2.80
2022-07-29T05:33:51.729Z,2.60
2022-07-29T05:38:52.875Z,2.85
2022-07-29T05:43:53.706Z,3.22
2022-07-29T05:48:54.877Z,2.90
2022-07-29T05:53:55.917Z,2.60
2022-07-29T05:58:56.949Z,2.60
2022-07-29T06:03:58.031Z,2.83
2022-07-29T06:08:58.963Z,2.95
2022-07-29T06:13:59.823Z,3.08
2022-07-29T06:19:01.334Z,2.95
2022-07-29T06:24:02.551Z,2.58
2022-07-29T06:29:03.415Z,2.17
2022-07-29T06:34:04.562Z,2.83
2022-07-29T06:39:07.375Z,2.90
2022-07-29T06:49:10.765Z,3.00
2022-07-29T06:54:11.586Z,2.67
2022-07-29T06:59:12.886Z,3.30
2022-07-29T07:04:13.903Z,2.87
2022-07-29T07:09:15.158Z,2.30
2022-07-29T07:14:16.468Z,3.10
2022-07-29T07:19:19.444Z,3.35
2022-07-29T07:24:20.311Z,2.80
2022-07-29T07:29:21.184Z,2.92
2022-07-29T07:34:29.642Z,2.95
2022-07-29T07:39:30.887Z,3.03
2022-07-29T07:44:32.030Z,2.95
2022-07-29T07:49:33.094Z,2.97
2022-07-29T07:54:33.932Z,3.20
2022-07-29T07:59:34.837Z,3.10
2022-07-29T08:04:36.100Z,3.40
2022-07-29T08:09:37.011Z,3.25
2022-07-29T08:14:37.910Z,3.10
2022-07-29T08:19:39.047Z,3.00
2022-07-29T08:24:42.975Z,2.65
2022-07-29T08:29:43.862Z,3.05
2022-07-29T08:34:46.392Z,3.17
2022-07-29T08:44:48.853Z,2.85
2022-07-29T08:49:50.469Z,3.17
2022-07-29T08:54:52.856Z,3.13
2022-07-29T08:59:55.097Z,3.20
2022-07-29T09:04:59.907Z,3.42
2022-07-29T09:10:01.519Z,3.15
2022-07-29T09:15:03.019Z,3.13
2022-07-29T09:20:12.652Z,3.37
2022-07-29T09:25:14.225Z,3.47
2022-07-29T09:30:15.241Z,3.08
2022-07-29T09:35:27.345Z,2.95
2022-07-29T09:40:28.956Z,3.30
2022-07-29T09:45:32.014Z,3.00
2022-07-29T09:50:40.589Z,3.50
2022-07-29T09:55:52.068Z,3.25
2022-07-29T10:00:55.143Z,3.08
2022-07-29T10:06:10.038Z,4.03
2022-07-29T10:11:13.640Z,3.17
2022-07-29T10:16:16.713Z,2.92
2022-07-29T10:21:35.275Z,2.95
2022-07-29T10:26:41.273Z,2.97
2022-07-29T10:31:57.817Z,3.00
2022-07-29T10:37:35.420Z,2.80
2022-07-29T10:42:41.410Z,3.35
2022-07-29T10:47:42.365Z,3.00
2022-07-29T10:52:56.786Z,3.20
2022-07-29T10:58:15.298Z,3.25
2022-07-29T11:03:50.834Z,2.80
2022-07-29T11:09:20.219Z,2.85
2022-07-29T11:15:45.528Z,2.90
2022-07-29T11:20:50.135Z,3.22
2022-07-29T11:26:24.076Z,3.12
2022-07-29T11:31:38.621Z,2.65
2022-07-29T11:37:15.002Z,3.60
2022-07-29T11:42:52.014Z,3.50
2022-07-29T11:48:27.760Z,2.97
2022-07-29T12:12:07.013Z,3.40
2022-07-29T12:17:30.669Z,3.58
2022-07-29T12:22:37.642Z,3.00
2022-07-29T12:27:40.265Z,3.10
2022-07-29T12:32:47.386Z,3.42
2022-07-29T12:37:51.765Z,3.33
2022-07-29T12:44:46.712Z,3.47
2022-07-29T12:49:48.887Z,3.53
2022-07-29T12:54:49.989Z,3.45
2022-07-29T13:00:11.583Z,3.35
2022-07-29T13:05:12.957Z,3.72
2022-07-29T13:10:16.234Z,3.37
2022-07-29T13:15:19.089Z,3.40
2022-07-29T13:20:24.601Z,3.47
2022-07-29T13:25:31.899Z,3.53
2022-07-29T13:30:32.784Z,3.25
2022-07-29T13:35:34.217Z,2.75
2022-07-29T13:40:41.942Z,3.62
2022-07-29T13:45:43.030Z,3.42
2022-07-29T13:50:44.356Z,3.05
2022-07-29T13:55:45.223Z,3.15
2022-07-29T14:00:46.874Z,3.10
2022-07-29T14:05:47.733Z,3.50
2022-07-29T14:10:49.598Z,2.90
2022-07-29T14:15:53.337Z,3.17
2022-07-29T14:20:54.215Z,3.65
2022-07-29T14:25:55.272Z,2.83
2022-07-29T14:30:56.259Z,3.60
2022-07-29T14:35:57.166Z,3.58
2022-07-29T14:41:02.205Z,3.75
2022-07-29T14:46:08.345Z,3.42
2022-07-29T14:51:10.541Z,3.30
2022-07-29T14:56:35.433Z,3.50
2022-07-29T15:01:37.411Z,3.47
2022-07-29T15:06:38.295Z,3.40
2022-07-29T15:11:39.195Z,3.10
2022-07-29T15:16:43.880Z,3.05
2022-07-29T15:21:48.779Z,3.50
2022-07-29T15:26:50.492Z,3.78
2022-07-29T15:31:51.431Z,2.80
2022-07-29T15:36:53.384Z,3.25
2022-07-29T15:41:54.738Z,3.40
2022-07-29T15:47:07.720Z,3.12
2022-07-29T15:52:09.956Z,2.92
2022-07-29T15:57:13.557Z,4.28
2022-07-29T16:02:14.888Z,3.37
2022-07-29T16:07:15.932Z,3.28
2022-07-29T16:12:16.794Z,3.78
2022-07-29T16:17:18.575Z,3.60
2022-07-29T16:22:19.469Z,4.00
2022-07-29T16:27:24.076Z,3.90
2022-07-29T16:32:25.103Z,3.50
2022-07-29T16:37:28.815Z,3.67
2022-07-29T16:42:46.092Z,3.97
2022-07-29T16:47:47.944Z,3.58
2022-07-29T16:52:49.254Z,3.57
2022-07-29T16:57:51.839Z,3.97
2022-07-29T17:02:52.656Z,4.15
2022-07-29T17:07:54.080Z,3.67
2022-07-29T17:12:54.946Z,3.50
2022-07-29T17:17:56.521Z,3.70
2022-07-29T17:22:57.824Z,3.60
2022-07-29T17:28:00.910Z,3.70
2022-07-29T17:33:02.141Z,3.65
2022-07-29T17:38:03.121Z,4.32
2022-07-29T17:43:04.256Z,3.53
2022-07-29T17:48:06.069Z,3.53
2022-07-29T17:53:15.688Z,3.70
2022-07-29T17:58:17.784Z,4.07
2022-07-29T18:03:19.490Z,3.00
2022-07-29T18:08:20.493Z,3.73
2022-07-29T18:13:21.358Z,3.40
2022-07-29T18:18:22.323Z,3.30
2022-07-29T18:23:23.162Z,3.50
2022-07-29T18:28:24.047Z,3.42
2022-07-29T18:33:24.919Z,3.55
2022-07-29T18:38:26.225Z,3.37
2022-07-29T18:43:27.105Z,3.40
2022-07-29T18:48:28.270Z,3.08
2022-07-29T18:53:29.164Z,3.80
2022-07-29T18:58:32.214Z,3.75
2022-07-29T19:03:34.098Z,4.00
2022-07-29T19:08:35.052Z,3.60
2022-07-29T19:13:36.386Z,3.92
2022-07-29T19:18:38.110Z,4.20
2022-07-29T19:24:02.319Z,3.40
2022-07-29T19:29:08.747Z,3.62
2022-07-29T19:34:09.630Z,3.28
2022-07-29T19:39:10.917Z,3.87
2022-07-29T19:44:11.909Z,3.55
2022-07-29T19:49:12.975Z,3.17
2022-07-29T19:54:15.028Z,3.12
2022-07-29T19:59:15.910Z,3.40
2022-07-29T20:04:16.800Z,3.00
2022-07-29T20:09:20.566Z,2.67
2022-07-29T20:14:22.490Z,2.92
2022-07-29T20:19:23.649Z,2.97
2022-07-29T20:24:24.756Z,3.12
2022-07-29T20:29:26.025Z,2.58
2022-07-29T20:34:26.986Z,2.90
2022-07-29T20:39:27.913Z,2.58
2022-07-29T20:44:28.889Z,3.08
2022-07-29T20:49:30.189Z,2.50
2022-07-29T20:54:32.325Z,2.62
2022-07-29T20:59:33.377Z,2.87
2022-07-29T21:04:36.404Z,2.37
2022-07-29T21:09:37.235Z,2.28
2022-07-29T21:14:47.438Z,2.12
2022-07-29T21:19:51.620Z,2.70
2022-07-29T21:24:52.613Z,2.67
2022-07-29T21:29:53.660Z,2.08
2022-07-29T21:34:54.515Z,2.37
2022-07-29T21:39:55.574Z,2.78
2022-07-29T21:44:56.610Z,2.60
2022-07-29T21:49:57.734Z,2.60
2022-07-29T21:54:58.578Z,2.47
2022-07-29T22:00:02.766Z,2.40
2022-07-29T22:05:13.880Z,2.20
2022-07-29T22:10:15.417Z,2.60
2022-07-29T22:15:16.443Z,3.08
2022-07-29T22:20:18.106Z,2.22
2022-07-29T22:25:19.787Z,2.60
2022-07-29T22:30:20.868Z,2.30
2022-07-29T22:35:21.721Z,2.87
2022-07-29T22:40:22.611Z,2.30
2022-07-29T22:45:31.905Z,2.17
2022-07-29T22:50:32.897Z,2.72
2022-07-29T22:55:33.811Z,2.40
2022-07-29T23:00:34.751Z,2.58
2022-07-29T23:05:35.624Z,2.20
2022-07-29T23:10:36.434Z,2.55
2022-07-29T23:15:37.312Z,2.45
2022-07-29T23:20:38.254Z,2.20
2022-07-29T23:25:39.332Z,2.92
2022-07-29T23:30:41.230Z,3.10
2022-07-29T23:35:42.181Z,3.60
2022-07-29T23:40:43.043Z,4.82
2022-07-29T23:45:45.195Z,3.40
2022-07-29T23:50:50.062Z,4.40
2022-07-29T23:55:50.914Z,4.70
